Time,TemperatureF,DewpointF,PressureIn,WindDirection,WindDirectionDegrees,WindSpeedMPH,WindSpeedGustMPH,Humidity,HourlyPrecipIn,Conditions,Clouds,dailyrainin,SolarRadiationWatts/m^2,SoftwareType,DateUTC
2013-08-15 00:04:00,60.5,55.0,30.03,SE,125,6.0,-999.0,82,-99.99,,,0.00,0,weatherlink.com 1.10,2013-08-15 04:04:00,
2013-08-15 00:19:00,60.9,55.0,30.03,ESE,115,9.0,-999.0,80,-99.99,,,0.00,0,weatherlink.com 1.10,2013-08-15 04:19:00,
2013-08-15 00:34:00,61.1,54.0,30.03,ESE,115,6.0,-999.0,78,-99.99,,,0.00,0,weatherlink.com 1.10,2013-08-15 04:34:00,
2013-08-15 00:49:00,60.5,55.0,30.03,ESE,106,10.0,-999.0,81,-99.99,,,0.00,0,weatherlink.com 1.10,2013-08-15 04:49:00,
2013-08-15 01:04:00,59.9,55.0,30.03,ESE,106,6.0,-999.0,85,-99.99,,,0.00,0,weatherlink.com 1.10,2013-08-15 05:04:00,
2013-08-15 01:19:00,59.6,56.0,30.01,ESE,121,10.0,-999.0,87,-99.99,,,0.00,0,weatherlink.com 1.10,2013-08-15 05:19:00,
2013-08-15 01:34:00,59.5,55.0,30.01,ESE,105,10.0,-999.0,85,-99.99,,,0.00,0,weatherlink.com 1.10,2013-08-15 05:34:00,
2013-08-15 01:49:00,59.0,56.0,30.00,ESE,106,11.0,-999.0,89,-99.99,,,0.00,0,weatherlink.com 1.10,2013-08-15 05:49:00,
2013-08-15 02:04:00,59.0,56.0,30.00,ESE,119,6.0,-999.0,91,-99.99,,,0.00,0,weatherlink.com 1.10,2013-08-15 06:04:00,
2013-08-15 02:19:00,58.7,56.0,30.00,ESE,111,5.0,-999.0,91,-99.99,,,0.00,0,weatherlink.com 1.10,2013-08-15 06:19:00,
2013-08-15 02:34:00,58.4,56.0,30.00,ESE,110,4.0,-999.0,91,-99.99,,,0.00,0,weatherlink.com 1.10,2013-08-15 06:34:00,
2013-08-15 02:50:00,58.1,56.0,29.99,ESE,115,7.0,-999.0,92,-99.99,,,0.00,0,weatherlink.com 1.10,2013-08-15 06:50:00,
2013-08-15 03:04:00,57.8,55.0,30.00,ESE,121,6.0,-999.0,91,-99.99,,,0.00,0,weatherlink.com 1.10,2013-08-15 07:04:00,
2013-08-15 03:19:00,57.6,54.0,30.01,SE,134,10.0,-999.0,89,-99.99,,,0.00,0,weatherlink.com 1.10,2013-08-15 07:19:00,
2013-08-15 03:34:00,57.5,54.0,30.01,ESE,109,12.0,-999.0,87,-99.99,,,0.00,0,weatherlink.com 1.10,2013-08-15 07:34:00,
2013-08-15 03:49:00,57.3,53.0,30.00,ESE,107,12.0,-999.0,86,-99.99,,,0.00,0,weatherlink.com 1.10,2013-08-15 07:49:00,
2013-08-15 04:04:00,57.1,53.0,30.00,ESE,121,11.0,-999.0,87,-99.99,,,0.00,0,weatherlink.com 1.10,2013-08-15 08:04:00,
2013-08-15 04:19:00,56.6,54.0,30.03,ESE,116,5.0,-999.0,89,-99.99,,,0.00,0,weatherlink.com 1.10,2013-08-15 08:19:00,
2013-08-15 04:34:00,56.6,53.0,30.02,East,97,10.0,-999.0,88,-99.99,,,0.00,0,weatherlink.com 1.10,2013-08-15 08:34:00,
2013-08-15 04:49:00,56.2,54.0,30.03,NE,38,5.0,-999.0,91,-99.99,,,0.00,0,weatherlink.com 1.10,2013-08-15 08:49:00,
2013-08-15 05:04:00,55.8,54.0,30.03,NE,53,5.0,-999.0,92,-99.99,,,0.00,0,weatherlink.com 1.10,2013-08-15 09:04:00,
2013-08-15 05:19:00,55.5,54.0,30.03,NE,47,2.0,-999.0,94,-99.99,,,0.00,0,weatherlink.com 1.10,2013-08-15 09:19:00,
2013-08-15 05:34:00,55.5,54.0,30.03,ENE,72,3.0,-999.0,95,-99.99,,,0.00,0,weatherlink.com 1.10,2013-08-15 09:34:00,
2013-08-15 05:49:00,55.5,54.0,30.03,NE,42,5.0,-999.0,96,-99.99,,,0.00,0,weatherlink.com 1.10,2013-08-15 09:49:00,
2013-08-15 06:04:00,55.3,54.0,30.03,NE,50,1.0,-999.0,96,-99.99,,,0.00,0,weatherlink.com 1.10,2013-08-15 10:04:00,
2013-08-15 06:19:00,55.0,54.0,30.04,ENE,64,4.0,-999.0,96,-99.99,,,0.00,0,weatherlink.com 1.10,2013-08-15 10:19:00,
2013-08-15 06:34:00,54.7,54.0,30.05,SE,132,2.0,-999.0,96,-99.99,,,0.00,0,weatherlink.com 1.10,2013-08-15 10:34:00,
2013-08-15 06:49:00,54.3,53.0,30.05,East,99,5.0,-999.0,96,-99.99,,,0.00,0,weatherlink.com 1.10,2013-08-15 10:49:00,
2013-08-15 07:04:00,53.9,53.0,30.06,East,94,2.0,-999.0,96,-99.99,,,0.00,12,weatherlink.com 1.10,2013-08-15 11:04:00,
2013-08-15 07:19:00,53.5,52.0,30.08,ESE,121,6.0,-999.0,96,-99.99,,,0.00,26,weatherlink.com 1.10,2013-08-15 11:19:00,
2013-08-15 07:34:00,53.6,53.0,30.09,SE,124,11.0,-999.0,96,-99.99,,,0.00,39,weatherlink.com 1.10,2013-08-15 11:34:00,
2013-08-15 07:49:00,53.9,53.0,30.10,SE,134,7.0,-999.0,95,-99.99,,,0.00,53,weatherlink.com 1.10,2013-08-15 11:49:00,
2013-08-15 08:04:00,54.2,53.0,30.10,SE,125,13.0,-999.0,95,-99.99,,,0.00,153,weatherlink.com 1.10,2013-08-15 12:04:00,
2013-08-15 08:19:00,54.7,53.0,30.11,ESE,116,6.0,-999.0,95,-99.99,,,0.00,81,weatherlink.com 1.10,2013-08-15 12:19:00,
2013-08-15 08:34:00,54.5,53.0,30.11,ENE,76,6.0,-999.0,94,-99.99,,,0.00,158,weatherlink.com 1.10,2013-08-15 12:34:00,
2013-08-15 08:49:00,54.9,53.0,30.12,East,98,5.0,-999.0,92,-99.99,,,0.00,193,weatherlink.com 1.10,2013-08-15 12:49:00,
2013-08-15 09:04:00,55.9,52.0,30.12,ESE,115,9.0,-999.0,86,-99.99,,,0.00,489,weatherlink.com 1.10,2013-08-15 13:04:00,
2013-08-15 09:19:00,57.4,53.0,30.12,SE,136,11.0,-999.0,85,-99.99,,,0.00,476,weatherlink.com 1.10,2013-08-15 13:19:00,
2013-08-15 09:34:00,58.5,52.0,30.11,East,88,15.0,-999.0,80,-99.99,,,0.00,561,weatherlink.com 1.10,2013-08-15 13:34:00,
2013-08-15 09:49:00,58.9,52.0,30.11,ESE,107,10.0,-999.0,78,-99.99,,,0.00,522,weatherlink.com 1.10,2013-08-15 13:49:00,
2013-08-15 10:04:00,59.0,53.0,30.11,SE,124,3.0,-999.0,81,-99.99,,,0.00,615,weatherlink.com 1.10,2013-08-15 14:04:00,
2013-08-15 10:20:00,59.0,53.0,30.11,East,92,6.0,-999.0,79,-99.99,,,0.00,211,weatherlink.com 1.10,2013-08-15 14:20:00,
2013-08-15 10:34:00,59.0,53.0,30.11,ESE,113,6.0,-999.0,81,-99.99,,,0.00,313,weatherlink.com 1.10,2013-08-15 14:34:00,
2013-08-15 10:49:00,58.5,53.0,30.12,ESE,107,15.0,-999.0,82,-99.99,,,0.00,626,weatherlink.com 1.10,2013-08-15 14:49:00,
2013-08-15 11:04:00,59.8,54.0,30.11,ESE,110,11.0,-999.0,81,-99.99,,,0.00,728,weatherlink.com 1.10,2013-08-15 15:04:00,
2013-08-15 11:19:00,60.9,54.0,30.10,SE,126,6.0,-999.0,78,-99.99,,,0.00,267,weatherlink.com 1.10,2013-08-15 15:19:00,
2013-08-15 11:34:00,60.0,53.0,30.11,ESE,117,5.0,-999.0,78,-99.99,,,0.00,311,weatherlink.com 1.10,2013-08-15 15:34:00,
2013-08-15 11:49:00,60.2,54.0,30.10,ESE,106,7.0,-999.0,80,-99.99,,,0.00,353,weatherlink.com 1.10,2013-08-15 15:49:00,
2013-08-15 12:04:00,60.8,55.0,30.10,ENE,75,5.0,-999.0,81,-99.99,,,0.00,318,weatherlink.com 1.10,2013-08-15 16:04:00,
2013-08-15 12:19:00,59.8,54.0,30.11,SE,137,4.0,-999.0,81,-99.99,,,0.00,88,weatherlink.com 1.10,2013-08-15 16:19:00,
2013-08-15 12:34:00,58.7,54.0,30.11,ESE,111,5.0,-999.0,84,-99.99,,,0.00,294,weatherlink.com 1.10,2013-08-15 16:34:00,
2013-08-15 12:49:00,57.8,53.0,30.11,ESE,116,5.0,-999.0,84,-99.99,,,0.00,153,weatherlink.com 1.10,2013-08-15 16:49:00,
2013-08-15 13:05:00,58.0,54.0,30.11,ESE,109,4.0,-999.0,86,-99.99,,,0.00,153,weatherlink.com 1.10,2013-08-15 17:05:00,
2013-08-15 13:20:00,58.0,54.0,30.11,ESE,106,3.0,-999.0,85,-99.99,,,0.00,258,weatherlink.com 1.10,2013-08-15 17:20:00,
2013-08-15 13:34:00,58.9,54.0,30.11,East,94,11.0,-999.0,83,-99.99,,,0.00,357,weatherlink.com 1.10,2013-08-15 17:34:00,
2013-08-15 13:49:00,58.9,54.0,30.09,ESE,107,5.0,-999.0,85,-99.99,,,0.00,292,weatherlink.com 1.10,2013-08-15 17:49:00,
2013-08-15 14:04:00,58.4,54.0,30.10,East,99,5.0,-999.0,84,-99.99,,,0.00,341,weatherlink.com 1.10,2013-08-15 18:04:00,
2013-08-15 14:35:00,59.5,54.0,30.08,SE,138,4.0,-999.0,83,-99.99,,,0.00,272,weatherlink.com 1.10,2013-08-15 18:35:00,
2013-08-15 14:51:00,59.6,54.0,30.08,ESE,113,0.0,-999.0,83,-99.99,,,0.00,362,weatherlink.com 1.10,2013-08-15 18:51:00,
2013-08-15 15:04:00,60.2,55.0,30.08,East,98,7.0,-999.0,82,-99.99,,,0.00,149,weatherlink.com 1.10,2013-08-15 19:04:00,
2013-08-15 15:34:00,59.0,54.0,30.08,ESE,103,1.0,-999.0,83,-99.99,,,0.00,200,weatherlink.com 1.10,2013-08-15 19:34:00,
2013-08-15 15:49:00,59.5,55.0,30.08,ESE,105,2.0,-999.0,85,-99.99,,,0.00,148,weatherlink.com 1.10,2013-08-15 19:49:00,
2013-08-15 16:05:00,59.0,55.0,30.07,ESE,107,4.0,-999.0,85,-99.99,,,0.00,225,weatherlink.com 1.10,2013-08-15 20:05:00,
2013-08-15 16:19:00,59.3,55.0,30.08,ESE,113,3.0,-999.0,85,-99.99,,,0.00,243,weatherlink.com 1.10,2013-08-15 20:19:00,
2013-08-15 16:34:00,59.0,55.0,30.08,ESE,107,1.0,-999.0,85,-99.99,,,0.00,120,weatherlink.com 1.10,2013-08-15 20:34:00,
2013-08-15 16:49:00,58.9,55.0,30.08,ESE,107,3.0,-999.0,86,-99.99,,,0.00,134,weatherlink.com 1.10,2013-08-15 20:49:00,
2013-08-15 17:05:00,58.5,55.0,30.09,East,101,4.0,-999.0,87,-99.99,,,0.00,114,weatherlink.com 1.10,2013-08-15 21:05:00,
2013-08-15 17:19:00,58.1,54.0,30.09,ESE,110,4.0,-999.0,86,-99.99,,,0.00,156,weatherlink.com 1.10,2013-08-15 21:19:00,
2013-08-15 17:49:00,58.4,54.0,30.09,East,93,6.0,-999.0,86,-99.99,,,0.00,90,weatherlink.com 1.10,2013-08-15 21:49:00,
2013-08-15 18:04:00,57.9,54.0,30.10,ESE,106,4.0,-999.0,88,-99.99,,,0.00,65,weatherlink.com 1.10,2013-08-15 22:04:00,
2013-08-15 18:19:00,57.7,54.0,30.10,ESE,103,2.0,-999.0,88,-99.99,,,0.00,56,weatherlink.com 1.10,2013-08-15 22:19:00,
2013-08-15 18:34:00,57.4,54.0,30.09,ESE,105,3.0,-999.0,87,-99.99,,,0.00,97,weatherlink.com 1.10,2013-08-15 22:34:00,
2013-08-15 18:49:00,57.5,54.0,30.09,ESE,103,3.0,-999.0,88,-99.99,,,0.00,109,weatherlink.com 1.10,2013-08-15 22:49:00,
2013-08-15 19:04:00,57.6,54.0,30.09,ESE,113,10.0,-999.0,88,-99.99,,,0.00,72,weatherlink.com 1.10,2013-08-15 23:04:00,
2013-08-15 19:19:00,57.3,54.0,30.10,ESE,113,5.0,-999.0,87,-99.99,,,0.00,53,weatherlink.com 1.10,2013-08-15 23:19:00,
2013-08-15 19:34:00,57.1,54.0,30.11,ESE,114,3.0,-999.0,88,-99.99,,,0.00,39,weatherlink.com 1.10,2013-08-15 23:34:00,
2013-08-15 19:50:00,56.8,53.0,30.11,ESE,104,0.0,-999.0,87,-99.99,,,0.00,19,weatherlink.com 1.10,2013-08-15 23:50:00,
2013-08-15 20:05:00,56.6,54.0,30.10,East,98,0.0,-999.0,89,-99.99,,,0.00,11,weatherlink.com 1.10,2013-08-16 00:05:00,
2013-08-15 20:19:00,56.5,54.0,30.10,NNE,32,2.0,-999.0,91,-99.99,,,0.00,0,weatherlink.com 1.10,2013-08-16 00:19:00,
2013-08-15 20:34:00,56.2,54.0,30.10,NE,40,2.0,-999.0,91,-99.99,,,0.00,0,weatherlink.com 1.10,2013-08-16 00:34:00,
2013-08-15 20:50:00,56.1,54.0,30.11,North,360,2.0,-999.0,92,-99.99,,,0.00,0,weatherlink.com 1.10,2013-08-16 00:50:00,
2013-08-15 21:05:00,56.0,54.0,30.11,North,350,3.0,-999.0,92,-99.99,,,0.00,0,weatherlink.com 1.10,2013-08-16 01:05:00,
2013-08-15 21:20:00,56.0,54.0,30.11,North,5,6.0,-999.0,92,-99.99,,,0.00,0,weatherlink.com 1.10,2013-08-16 01:20:00,
2013-08-15 21:35:00,55.9,54.0,30.11,North,360,3.0,-999.0,92,-99.99,,,0.00,0,weatherlink.com 1.10,2013-08-16 01:35:00,
2013-08-15 21:50:00,55.5,53.0,30.11,North,360,2.0,-999.0,91,-99.99,,,0.00,0,weatherlink.com 1.10,2013-08-16 01:50:00,
2013-08-15 22:05:00,55.5,53.0,30.12,East,82,4.0,-999.0,92,-99.99,,,0.00,0,weatherlink.com 1.10,2013-08-16 02:05:00,
2013-08-15 22:20:00,55.6,53.0,30.12,East,92,3.0,-999.0,92,-99.99,,,0.00,0,weatherlink.com 1.10,2013-08-16 02:20:00,
2013-08-15 22:35:00,55.7,53.0,30.11,NNE,19,4.0,-999.0,91,-99.99,,,0.00,0,weatherlink.com 1.10,2013-08-16 02:35:00,
2013-08-15 22:50:00,55.7,53.0,30.11,ESE,111,4.0,-999.0,90,-99.99,,,0.00,0,weatherlink.com 1.10,2013-08-16 02:50:00,
2013-08-15 23:05:00,55.7,53.0,30.11,NNW,348,2.0,-999.0,90,-99.99,,,0.00,0,weatherlink.com 1.10,2013-08-16 03:05:00,
2013-08-15 23:20:00,55.8,53.0,30.11,North,360,4.0,-999.0,90,-99.99,,,0.00,0,weatherlink.com 1.10,2013-08-16 03:20:00,
2013-08-15 23:35:00,55.8,53.0,30.11,North,355,5.0,-999.0,90,-99.99,,,0.00,0,weatherlink.com 1.10,2013-08-16 03:35:00,
2013-08-15 23:50:00,55.7,53.0,30.11,NNW,348,1.0,-999.0,91,-99.99,,,0.00,0,weatherlink.com 1.10,2013-08-16 03:50:00,